sensor_id;sensor_type;location;lat;lon;timestamp;P1;durP1;ratioP1;P2;durP2;ratioP2
40164;SDS011;25882;51.120;17.248;2023-01-06T00:01:04;2.63;;;1.45;;
40164;SDS011;25882;51.120;17.248;2023-01-06T00:03:31;3.95;;;1.63;;
40164;SDS011;25882;51.120;17.248;2023-01-06T00:05:58;6.00;;;1.40;;
40164;SDS011;25882;51.120;17.248;2023-01-06T00:08:26;6.07;;;2.00;;
40164;SDS011;25882;51.120;17.248;2023-01-06T00:10:53;4.78;;;1.27;;
40164;SDS011;25882;51.120;17.248;2023-01-06T00:13:19;5.50;;;1.70;;
40164;SDS011;25882;51.120;17.248;2023-01-06T00:15:46;2.40;;;1.23;;
40164;SDS011;25882;51.120;17.248;2023-01-06T00:18:12;5.57;;;1.88;;
40164;SDS011;25882;51.120;17.248;2023-01-06T00:20:39;3.70;;;1.45;;
40164;SDS011;25882;51.120;17.248;2023-01-06T00:23:05;4.47;;;1.80;;
40164;SDS011;25882;51.120;17.248;2023-01-06T00:25:33;2.83;;;1.50;;
40164;SDS011;25882;51.120;17.248;2023-01-06T00:28:00;5.18;;;1.50;;
40164;SDS011;25882;51.120;17.248;2023-01-06T00:30:26;6.70;;;1.55;;
40164;SDS011;25882;51.120;17.248;2023-01-06T00:32:52;3.22;;;1.50;;
40164;SDS011;25882;51.120;17.248;2023-01-06T00:35:19;3.63;;;1.88;;
40164;SDS011;25882;51.120;17.248;2023-01-06T00:37:45;6.53;;;2.75;;
40164;SDS011;25882;51.120;17.248;2023-01-06T00:40:12;4.95;;;1.98;;
40164;SDS011;25882;51.120;17.248;2023-01-06T00:42:39;9.27;;;3.67;;
40164;SDS011;25882;51.120;17.248;2023-01-06T00:45:06;8.60;;;2.72;;
40164;SDS011;25882;51.120;17.248;2023-01-06T00:47:33;8.30;;;3.40;;
40164;SDS011;25882;51.120;17.248;2023-01-06T00:49:59;10.98;;;4.05;;
40164;SDS011;25882;51.120;17.248;2023-01-06T00:52:25;17.92;;;6.68;;
40164;SDS011;25882;51.120;17.248;2023-01-06T00:54:52;19.80;;;6.43;;
40164;SDS011;25882;51.120;17.248;2023-01-06T00:57:18;9.63;;;3.88;;
40164;SDS011;25882;51.120;17.248;2023-01-06T00:59:46;8.68;;;3.60;;
40164;SDS011;25882;51.120;17.248;2023-01-06T01:02:12;4.97;;;2.00;;
40164;SDS011;25882;51.120;17.248;2023-01-06T01:04:39;5.47;;;2.22;;
40164;SDS011;25882;51.120;17.248;2023-01-06T01:07:05;5.63;;;2.30;;
40164;SDS011;25882;51.120;17.248;2023-01-06T01:09:32;13.10;;;4.20;;
40164;SDS011;25882;51.120;17.248;2023-01-06T01:11:58;29.38;;;11.85;;
40164;SDS011;25882;51.120;17.248;2023-01-06T01:14:42;10.02;;;3.83;;
40164;SDS011;25882;51.120;17.248;2023-01-06T01:17:10;7.32;;;2.78;;
40164;SDS011;25882;51.120;17.248;2023-01-06T01:19:38;6.47;;;2.38;;
40164;SDS011;25882;51.120;17.248;2023-01-06T01:22:05;4.15;;;1.73;;
40164;SDS011;25882;51.120;17.248;2023-01-06T01:24:32;4.28;;;1.92;;
40164;SDS011;25882;51.120;17.248;2023-01-06T01:26:58;5.32;;;2.42;;
40164;SDS011;25882;51.120;17.248;2023-01-06T01:29:25;3.60;;;1.50;;
40164;SDS011;25882;51.120;17.248;2023-01-06T01:31:51;4.82;;;1.80;;
40164;SDS011;25882;51.120;17.248;2023-01-06T01:34:20;5.43;;;1.90;;
40164;SDS011;25882;51.120;17.248;2023-01-06T01:36:47;3.60;;;1.52;;
40164;SDS011;25882;51.120;17.248;2023-01-06T01:39:15;5.60;;;1.80;;
40164;SDS011;25882;51.120;17.248;2023-01-06T01:41:42;3.35;;;1.60;;
40164;SDS011;25882;51.120;17.248;2023-01-06T01:47:13;6.72;;;1.95;;
40164;SDS011;25882;51.120;17.248;2023-01-06T01:49:43;4.15;;;1.80;;
40164;SDS011;25882;51.120;17.248;2023-01-06T01:52:11;5.53;;;2.80;;
40164;SDS011;25882;51.120;17.248;2023-01-06T01:54:38;9.00;;;2.58;;
40164;SDS011;25882;51.120;17.248;2023-01-06T01:57:06;6.90;;;2.60;;
40164;SDS011;25882;51.120;17.248;2023-01-06T01:59:36;5.07;;;1.92;;
40164;SDS011;25882;51.120;17.248;2023-01-06T02:02:03;7.15;;;2.10;;
40164;SDS011;25882;51.120;17.248;2023-01-06T02:04:30;7.28;;;2.10;;
40164;SDS011;25882;51.120;17.248;2023-01-06T02:06:59;4.88;;;1.95;;
40164;SDS011;25882;51.120;17.248;2023-01-06T02:09:26;3.03;;;1.73;;
40164;SDS011;25882;51.120;17.248;2023-01-06T02:11:55;4.97;;;2.55;;
40164;SDS011;25882;51.120;17.248;2023-01-06T02:14:23;3.72;;;2.17;;
40164;SDS011;25882;51.120;17.248;2023-01-06T02:16:53;21.00;;;6.70;;
40164;SDS011;25882;51.120;17.248;2023-01-06T02:19:39;9.32;;;4.15;;
40164;SDS011;25882;51.120;17.248;2023-01-06T02:22:34;8.57;;;3.13;;
40164;SDS011;25882;51.120;17.248;2023-01-06T02:25:26;8.18;;;3.15;;
40164;SDS011;25882;51.120;17.248;2023-01-06T02:31:13;7.47;;;4.25;;
40164;SDS011;25882;51.120;17.248;2023-01-06T02:33:49;8.20;;;3.17;;
40164;SDS011;25882;51.120;17.248;2023-01-06T02:36:26;8.93;;;2.92;;
40164;SDS011;25882;51.120;17.248;2023-01-06T02:38:58;3.97;;;2.30;;
40164;SDS011;25882;51.120;17.248;2023-01-06T02:41:31;4.28;;;2.28;;
40164;SDS011;25882;51.120;17.248;2023-01-06T02:44:00;4.65;;;1.70;;
40164;SDS011;25882;51.120;17.248;2023-01-06T02:46:42;5.43;;;1.55;;
40164;SDS011;25882;51.120;17.248;2023-01-06T02:49:18;6.22;;;2.10;;
40164;SDS011;25882;51.120;17.248;2023-01-06T02:51:50;6.70;;;2.30;;
40164;SDS011;25882;51.120;17.248;2023-01-06T02:54:22;4.60;;;1.97;;
40164;SDS011;25882;51.120;17.248;2023-01-06T02:56:53;4.40;;;1.75;;
40164;SDS011;25882;51.120;17.248;2023-01-06T02:59:25;6.03;;;2.88;;
40164;SDS011;25882;51.120;17.248;2023-01-06T03:01:56;4.05;;;1.98;;
40164;SDS011;25882;51.120;17.248;2023-01-06T03:07:26;4.20;;;2.15;;
40164;SDS011;25882;51.120;17.248;2023-01-06T03:09:53;4.43;;;1.98;;
40164;SDS011;25882;51.120;17.248;2023-01-06T03:12:21;2.65;;;1.80;;
40164;SDS011;25882;51.120;17.248;2023-01-06T03:14:51;8.93;;;4.68;;
40164;SDS011;25882;51.120;17.248;2023-01-06T03:17:22;3.88;;;2.55;;
40164;SDS011;25882;51.120;17.248;2023-01-06T03:19:48;7.45;;;2.92;;
40164;SDS011;25882;51.120;17.248;2023-01-06T03:22:15;7.85;;;4.13;;
40164;SDS011;25882;51.120;17.248;2023-01-06T03:24:42;10.82;;;3.63;;
40164;SDS011;25882;51.120;17.248;2023-01-06T03:27:09;5.25;;;2.38;;
40164;SDS011;25882;51.120;17.248;2023-01-06T03:29:35;3.83;;;2.67;;
40164;SDS011;25882;51.120;17.248;2023-01-06T03:32:03;5.13;;;2.35;;
40164;SDS011;25882;51.120;17.248;2023-01-06T03:37:25;7.43;;;5.45;;
40164;SDS011;25882;51.120;17.248;2023-01-06T03:39:57;18.92;;;8.65;;
40164;SDS011;25882;51.120;17.248;2023-01-06T03:42:29;24.98;;;8.82;;
40164;SDS011;25882;51.120;17.248;2023-01-06T03:48:06;5.95;;;2.95;;
40164;SDS011;25882;51.120;17.248;2023-01-06T03:50:37;11.85;;;3.58;;
40164;SDS011;25882;51.120;17.248;2023-01-06T03:53:10;6.13;;;2.30;;
40164;SDS011;25882;51.120;17.248;2023-01-06T03:55:44;5.00;;;2.60;;
40164;SDS011;25882;51.120;17.248;2023-01-06T03:58:12;4.78;;;2.63;;
40164;SDS011;25882;51.120;17.248;2023-01-06T04:00:38;5.28;;;2.65;;
40164;SDS011;25882;51.120;17.248;2023-01-06T04:03:07;4.38;;;2.47;;
40164;SDS011;25882;51.120;17.248;2023-01-06T04:05:34;6.30;;;2.70;;
40164;SDS011;25882;51.120;17.248;2023-01-06T04:08:02;6.18;;;2.53;;
40164;SDS011;25882;51.120;17.248;2023-01-06T04:10:28;4.47;;;2.50;;
40164;SDS011;25882;51.120;17.248;2023-01-06T04:12:55;15.32;;;5.43;;
40164;SDS011;25882;51.120;17.248;2023-01-06T04:15:21;103.85;;;26.23;;
40164;SDS011;25882;51.120;17.248;2023-01-06T04:17:49;43.78;;;12.07;;
40164;SDS011;25882;51.120;17.248;2023-01-06T04:20:16;32.00;;;8.52;;
40164;SDS011;25882;51.120;17.248;2023-01-06T04:22:44;18.25;;;5.20;;
40164;SDS011;25882;51.120;17.248;2023-01-06T04:25:12;11.98;;;5.15;;
40164;SDS011;25882;51.120;17.248;2023-01-06T04:27:39;19.35;;;6.18;;
40164;SDS011;25882;51.120;17.248;2023-01-06T04:30:05;40.28;;;11.63;;
40164;SDS011;25882;51.120;17.248;2023-01-06T04:32:32;115.15;;;31.17;;
40164;SDS011;25882;51.120;17.248;2023-01-06T04:34:59;84.22;;;22.70;;
40164;SDS011;25882;51.120;17.248;2023-01-06T04:37:25;104.55;;;39.28;;
40164;SDS011;25882;51.120;17.248;2023-01-06T04:39:51;59.80;;;21.75;;
40164;SDS011;25882;51.120;17.248;2023-01-06T04:42:19;41.13;;;14.80;;
40164;SDS011;25882;51.120;17.248;2023-01-06T04:44:46;82.82;;;35.20;;
40164;SDS011;25882;51.120;17.248;2023-01-06T04:47:12;17.10;;;7.35;;
40164;SDS011;25882;51.120;17.248;2023-01-06T04:49:38;10.93;;;4.85;;
40164;SDS011;25882;51.120;17.248;2023-01-06T04:52:05;25.65;;;11.65;;
40164;SDS011;25882;51.120;17.248;2023-01-06T04:54:33;64.28;;;28.85;;
40164;SDS011;25882;51.120;17.248;2023-01-06T04:57:00;82.55;;;36.72;;
40164;SDS011;25882;51.120;17.248;2023-01-06T04:59:27;75.22;;;32.55;;
40164;SDS011;25882;51.120;17.248;2023-01-06T05:01:54;26.25;;;10.88;;
40164;SDS011;25882;51.120;17.248;2023-01-06T05:04:20;62.72;;;28.55;;
40164;SDS011;25882;51.120;17.248;2023-01-06T05:06:47;30.67;;;14.82;;
40164;SDS011;25882;51.120;17.248;2023-01-06T05:09:13;24.27;;;12.77;;
40164;SDS011;25882;51.120;17.248;2023-01-06T05:11:39;20.50;;;8.82;;
40164;SDS011;25882;51.120;17.248;2023-01-06T05:14:05;18.10;;;6.60;;
40164;SDS011;25882;51.120;17.248;2023-01-06T05:16:33;18.10;;;5.82;;
40164;SDS011;25882;51.120;17.248;2023-01-06T05:19:00;9.75;;;4.68;;
40164;SDS011;25882;51.120;17.248;2023-01-06T05:21:27;5.90;;;3.20;;
40164;SDS011;25882;51.120;17.248;2023-01-06T05:23:54;5.20;;;2.50;;
40164;SDS011;25882;51.120;17.248;2023-01-06T05:26:22;3.72;;;2.17;;
40164;SDS011;25882;51.120;17.248;2023-01-06T05:28:49;4.30;;;2.50;;
40164;SDS011;25882;51.120;17.248;2023-01-06T05:31:16;6.35;;;3.30;;
40164;SDS011;25882;51.120;17.248;2023-01-06T05:33:44;9.95;;;4.28;;
40164;SDS011;25882;51.120;17.248;2023-01-06T05:36:11;6.10;;;3.33;;
40164;SDS011;25882;51.120;17.248;2023-01-06T05:38:37;7.10;;;3.63;;
40164;SDS011;25882;51.120;17.248;2023-01-06T05:41:04;7.40;;;3.78;;
40164;SDS011;25882;51.120;17.248;2023-01-06T05:43:31;8.32;;;3.92;;
40164;SDS011;25882;51.120;17.248;2023-01-06T05:45:59;31.92;;;14.52;;
40164;SDS011;25882;51.120;17.248;2023-01-06T05:48:29;10.30;;;4.95;;
40164;SDS011;25882;51.120;17.248;2023-01-06T05:51:00;29.65;;;12.95;;
40164;SDS011;25882;51.120;17.248;2023-01-06T05:53:29;21.75;;;8.23;;
40164;SDS011;25882;51.120;17.248;2023-01-06T05:55:58;11.93;;;6.60;;
40164;SDS011;25882;51.120;17.248;2023-01-06T05:58:24;20.48;;;7.63;;
40164;SDS011;25882;51.120;17.248;2023-01-06T06:00:51;28.33;;;11.85;;
40164;SDS011;25882;51.120;17.248;2023-01-06T06:03:17;17.40;;;7.47;;
40164;SDS011;25882;51.120;17.248;2023-01-06T06:05:43;8.85;;;5.00;;
40164;SDS011;25882;51.120;17.248;2023-01-06T06:08:11;10.80;;;4.13;;
40164;SDS011;25882;51.120;17.248;2023-01-06T06:10:38;7.72;;;4.22;;
40164;SDS011;25882;51.120;17.248;2023-01-06T06:13:04;4.85;;;3.00;;
40164;SDS011;25882;51.120;17.248;2023-01-06T06:15:30;6.03;;;2.83;;
40164;SDS011;25882;51.120;17.248;2023-01-06T06:17:56;4.65;;;2.70;;
40164;SDS011;25882;51.120;17.248;2023-01-06T06:20:23;5.85;;;2.80;;
40164;SDS011;25882;51.120;17.248;2023-01-06T06:22:49;7.40;;;2.83;;
40164;SDS011;25882;51.120;17.248;2023-01-06T06:25:17;5.85;;;2.50;;
40164;SDS011;25882;51.120;17.248;2023-01-06T06:27:43;4.15;;;2.20;;
40164;SDS011;25882;51.120;17.248;2023-01-06T06:30:10;6.10;;;3.25;;
40164;SDS011;25882;51.120;17.248;2023-01-06T06:32:36;4.95;;;2.50;;
40164;SDS011;25882;51.120;17.248;2023-01-06T06:35:03;5.30;;;2.53;;
40164;SDS011;25882;51.120;17.248;2023-01-06T06:37:30;7.18;;;2.85;;
40164;SDS011;25882;51.120;17.248;2023-01-06T06:39:56;7.07;;;3.25;;
40164;SDS011;25882;51.120;17.248;2023-01-06T06:42:24;7.13;;;3.80;;
40164;SDS011;25882;51.120;17.248;2023-01-06T06:44:51;5.82;;;3.70;;
40164;SDS011;25882;51.120;17.248;2023-01-06T06:47:17;6.55;;;3.40;;
40164;SDS011;25882;51.120;17.248;2023-01-06T06:49:44;8.32;;;4.35;;
40164;SDS011;25882;51.120;17.248;2023-01-06T06:52:10;7.90;;;4.30;;
40164;SDS011;25882;51.120;17.248;2023-01-06T06:54:36;8.25;;;4.65;;
40164;SDS011;25882;51.120;17.248;2023-01-06T06:57:03;8.30;;;4.07;;
40164;SDS011;25882;51.120;17.248;2023-01-06T06:59:31;9.52;;;5.05;;
40164;SDS011;25882;51.120;17.248;2023-01-06T07:01:57;11.77;;;5.50;;
40164;SDS011;25882;51.120;17.248;2023-01-06T07:04:24;10.43;;;5.40;;
40164;SDS011;25882;51.120;17.248;2023-01-06T07:06:50;9.60;;;4.38;;
40164;SDS011;25882;51.120;17.248;2023-01-06T07:09:16;11.52;;;4.90;;
40164;SDS011;25882;51.120;17.248;2023-01-06T07:11:43;8.73;;;4.38;;
40164;SDS011;25882;51.120;17.248;2023-01-06T07:14:09;7.45;;;5.30;;
40164;SDS011;25882;51.120;17.248;2023-01-06T07:16:37;8.85;;;4.05;;
40164;SDS011;25882;51.120;17.248;2023-01-06T07:19:04;6.28;;;4.05;;
40164;SDS011;25882;51.120;17.248;2023-01-06T07:21:30;9.30;;;4.18;;
40164;SDS011;25882;51.120;17.248;2023-01-06T07:23:57;7.95;;;4.57;;
40164;SDS011;25882;51.120;17.248;2023-01-06T07:26:23;9.75;;;4.72;;
40164;SDS011;25882;51.120;17.248;2023-01-06T07:28:49;11.00;;;5.25;;
40164;SDS011;25882;51.120;17.248;2023-01-06T07:31:15;7.25;;;4.47;;
40164;SDS011;25882;51.120;17.248;2023-01-06T07:33:44;10.65;;;5.35;;
40164;SDS011;25882;51.120;17.248;2023-01-06T07:36:10;11.52;;;5.50;;
40164;SDS011;25882;51.120;17.248;2023-01-06T07:38:36;12.95;;;6.32;;
40164;SDS011;25882;51.120;17.248;2023-01-06T07:41:03;9.77;;;5.60;;
40164;SDS011;25882;51.120;17.248;2023-01-06T07:43:29;11.18;;;5.40;;
40164;SDS011;25882;51.120;17.248;2023-01-06T07:45:56;7.88;;;4.90;;
40164;SDS011;25882;51.120;17.248;2023-01-06T07:48:22;6.65;;;4.35;;
40164;SDS011;25882;51.120;17.248;2023-01-06T07:50:50;8.60;;;4.80;;
40164;SDS011;25882;51.120;17.248;2023-01-06T07:53:16;8.88;;;4.03;;
40164;SDS011;25882;51.120;17.248;2023-01-06T07:55:48;8.35;;;4.45;;
40164;SDS011;25882;51.120;17.248;2023-01-06T07:58:16;5.53;;;3.10;;
40164;SDS011;25882;51.120;17.248;2023-01-06T08:00:43;7.82;;;4.38;;
40164;SDS011;25882;51.120;17.248;2023-01-06T08:03:10;5.15;;;2.85;;
40164;SDS011;25882;51.120;17.248;2023-01-06T08:05:37;6.10;;;3.75;;
40164;SDS011;25882;51.120;17.248;2023-01-06T08:08:07;6.15;;;3.60;;
40164;SDS011;25882;51.120;17.248;2023-01-06T08:10:34;7.13;;;3.15;;
40164;SDS011;25882;51.120;17.248;2023-01-06T08:13:02;6.72;;;3.03;;
40164;SDS011;25882;51.120;17.248;2023-01-06T08:15:29;7.47;;;3.70;;
40164;SDS011;25882;51.120;17.248;2023-01-06T08:17:55;5.93;;;3.65;;
40164;SDS011;25882;51.120;17.248;2023-01-06T08:20:22;10.95;;;4.95;;
40164;SDS011;25882;51.120;17.248;2023-01-06T08:22:49;8.43;;;3.60;;
40164;SDS011;25882;51.120;17.248;2023-01-06T08:25:17;6.90;;;3.50;;
40164;SDS011;25882;51.120;17.248;2023-01-06T08:27:44;8.73;;;4.10;;
40164;SDS011;25882;51.120;17.248;2023-01-06T08:30:10;6.88;;;3.78;;
40164;SDS011;25882;51.120;17.248;2023-01-06T08:32:37;7.78;;;3.35;;
40164;SDS011;25882;51.120;17.248;2023-01-06T08:35:03;8.02;;;2.97;;
40164;SDS011;25882;51.120;17.248;2023-01-06T08:37:30;9.18;;;4.15;;
40164;SDS011;25882;51.120;17.248;2023-01-06T08:39:56;5.97;;;2.97;;
40164;SDS011;25882;51.120;17.248;2023-01-06T08:42:24;6.18;;;4.10;;
40164;SDS011;25882;51.120;17.248;2023-01-06T08:44:50;5.32;;;3.42;;
40164;SDS011;25882;51.120;17.248;2023-01-06T08:47:17;7.80;;;3.90;;
40164;SDS011;25882;51.120;17.248;2023-01-06T08:49:44;5.50;;;3.30;;
40164;SDS011;25882;51.120;17.248;2023-01-06T08:52:10;6.68;;;3.75;;
40164;SDS011;25882;51.120;17.248;2023-01-06T08:54:36;7.18;;;4.07;;
40164;SDS011;25882;51.120;17.248;2023-01-06T08:57:03;6.90;;;4.00;;
40164;SDS011;25882;51.120;17.248;2023-01-06T08:59:31;7.50;;;3.78;;
40164;SDS011;25882;51.120;17.248;2023-01-06T09:01:57;6.70;;;4.20;;
40164;SDS011;25882;51.120;17.248;2023-01-06T09:04:24;7.50;;;4.00;;
40164;SDS011;25882;51.120;17.248;2023-01-06T09:06:50;7.47;;;4.80;;
40164;SDS011;25882;51.120;17.248;2023-01-06T09:09:17;13.02;;;6.50;;
40164;SDS011;25882;51.120;17.248;2023-01-06T09:11:44;12.55;;;7.38;;
40164;SDS011;25882;51.120;17.248;2023-01-06T09:14:11;11.45;;;6.70;;
40164;SDS011;25882;51.120;17.248;2023-01-06T09:16:42;18.58;;;7.28;;
40164;SDS011;25882;51.120;17.248;2023-01-06T09:19:09;11.07;;;6.35;;
40164;SDS011;25882;51.120;17.248;2023-01-06T09:21:35;8.60;;;4.88;;
40164;SDS011;25882;51.120;17.248;2023-01-06T09:24:02;8.27;;;4.45;;
40164;SDS011;25882;51.120;17.248;2023-01-06T09:26:29;9.07;;;4.18;;
40164;SDS011;25882;51.120;17.248;2023-01-06T09:28:55;5.93;;;3.72;;
40164;SDS011;25882;51.120;17.248;2023-01-06T09:31:22;6.25;;;3.45;;
40164;SDS011;25882;51.120;17.248;2023-01-06T09:33:49;8.82;;;3.95;;
40164;SDS011;25882;51.120;17.248;2023-01-06T09:36:19;6.72;;;3.80;;
40164;SDS011;25882;51.120;17.248;2023-01-06T09:38:45;7.28;;;3.10;;
40164;SDS011;25882;51.120;17.248;2023-01-06T09:44:16;5.03;;;3.83;;
40164;SDS011;25882;51.120;17.248;2023-01-06T09:46:45;8.77;;;4.30;;
40164;SDS011;25882;51.120;17.248;2023-01-06T09:49:17;8.77;;;4.82;;
40164;SDS011;25882;51.120;17.248;2023-01-06T09:51:47;7.63;;;4.30;;
40164;SDS011;25882;51.120;17.248;2023-01-06T09:54:14;9.35;;;3.70;;
40164;SDS011;25882;51.120;17.248;2023-01-06T09:56:44;11.32;;;4.60;;
40164;SDS011;25882;51.120;17.248;2023-01-06T09:59:14;11.90;;;5.38;;
40164;SDS011;25882;51.120;17.248;2023-01-06T10:01:43;9.15;;;4.32;;
40164;SDS011;25882;51.120;17.248;2023-01-06T10:04:13;8.15;;;3.88;;
40164;SDS011;25882;51.120;17.248;2023-01-06T10:06:45;9.57;;;4.03;;
40164;SDS011;25882;51.120;17.248;2023-01-06T10:09:16;7.30;;;4.18;;
40164;SDS011;25882;51.120;17.248;2023-01-06T10:11:50;8.65;;;4.43;;
40164;SDS011;25882;51.120;17.248;2023-01-06T10:14:25;11.02;;;5.13;;
40164;SDS011;25882;51.120;17.248;2023-01-06T10:17:06;9.05;;;3.90;;
40164;SDS011;25882;51.120;17.248;2023-01-06T10:19:46;7.57;;;4.18;;
40164;SDS011;25882;51.120;17.248;2023-01-06T10:22:20;7.43;;;3.40;;
40164;SDS011;25882;51.120;17.248;2023-01-06T10:24:52;8.27;;;4.05;;
40164;SDS011;25882;51.120;17.248;2023-01-06T10:27:25;7.50;;;4.07;;
40164;SDS011;25882;51.120;17.248;2023-01-06T10:29:53;6.20;;;3.50;;
40164;SDS011;25882;51.120;17.248;2023-01-06T10:32:21;6.35;;;3.70;;
40164;SDS011;25882;51.120;17.248;2023-01-06T10:34:51;8.20;;;3.42;;
40164;SDS011;25882;51.120;17.248;2023-01-06T10:37:18;7.85;;;4.50;;
40164;SDS011;25882;51.120;17.248;2023-01-06T10:39:47;5.90;;;3.17;;
40164;SDS011;25882;51.120;17.248;2023-01-06T10:42:18;7.10;;;2.92;;
40164;SDS011;25882;51.120;17.248;2023-01-06T10:45:09;7.78;;;4.50;;
40164;SDS011;25882;51.120;17.248;2023-01-06T10:47:36;10.98;;;4.05;;
40164;SDS011;25882;51.120;17.248;2023-01-06T10:50:04;8.63;;;3.67;;
40164;SDS011;25882;51.120;17.248;2023-01-06T10:52:31;6.28;;;3.25;;
40164;SDS011;25882;51.120;17.248;2023-01-06T10:54:58;13.68;;;5.40;;
40164;SDS011;25882;51.120;17.248;2023-01-06T10:57:31;9.93;;;5.25;;
40164;SDS011;25882;51.120;17.248;2023-01-06T11:00:09;9.13;;;3.90;;
40164;SDS011;25882;51.120;17.248;2023-01-06T11:02:40;5.80;;;2.67;;
40164;SDS011;25882;51.120;17.248;2023-01-06T11:05:12;9.23;;;4.57;;
40164;SDS011;25882;51.120;17.248;2023-01-06T11:07:46;11.55;;;3.88;;
40164;SDS011;25882;51.120;17.248;2023-01-06T11:10:21;6.70;;;3.55;;
40164;SDS011;25882;51.120;17.248;2023-01-06T11:12:51;8.02;;;4.18;;
40164;SDS011;25882;51.120;17.248;2023-01-06T11:15:18;13.45;;;5.25;;
40164;SDS011;25882;51.120;17.248;2023-01-06T11:17:47;8.52;;;3.50;;
40164;SDS011;25882;51.120;17.248;2023-01-06T11:20:27;7.30;;;3.45;;
40164;SDS011;25882;51.120;17.248;2023-01-06T11:23:02;7.07;;;4.30;;
40164;SDS011;25882;51.120;17.248;2023-01-06T11:25:38;9.30;;;3.72;;
40164;SDS011;25882;51.120;17.248;2023-01-06T11:28:11;8.13;;;4.25;;
40164;SDS011;25882;51.120;17.248;2023-01-06T11:30:41;8.43;;;4.93;;
40164;SDS011;25882;51.120;17.248;2023-01-06T11:33:14;9.15;;;4.50;;
40164;SDS011;25882;51.120;17.248;2023-01-06T11:35:43;9.02;;;4.35;;
40164;SDS011;25882;51.120;17.248;2023-01-06T11:38:11;8.27;;;3.90;;
40164;SDS011;25882;51.120;17.248;2023-01-06T11:40:39;8.27;;;4.60;;
40164;SDS011;25882;51.120;17.248;2023-01-06T11:43:08;7.28;;;3.40;;
40164;SDS011;25882;51.120;17.248;2023-01-06T11:45:38;9.33;;;3.70;;
40164;SDS011;25882;51.120;17.248;2023-01-06T11:48:14;8.60;;;3.95;;
40164;SDS011;25882;51.120;17.248;2023-01-06T11:50:50;8.68;;;3.78;;
40164;SDS011;25882;51.120;17.248;2023-01-06T11:53:17;7.90;;;3.33;;
40164;SDS011;25882;51.120;17.248;2023-01-06T11:55:53;7.43;;;4.35;;
40164;SDS011;25882;51.120;17.248;2023-01-06T11:58:23;11.05;;;5.00;;
40164;SDS011;25882;51.120;17.248;2023-01-06T12:00:55;9.77;;;4.47;;
40164;SDS011;25882;51.120;17.248;2023-01-06T12:03:27;8.18;;;3.92;;
40164;SDS011;25882;51.120;17.248;2023-01-06T12:05:59;7.82;;;3.70;;
40164;SDS011;25882;51.120;17.248;2023-01-06T12:08:32;9.68;;;3.92;;
40164;SDS011;25882;51.120;17.248;2023-01-06T12:11:03;7.28;;;3.80;;
40164;SDS011;25882;51.120;17.248;2023-01-06T12:13:32;9.30;;;4.27;;
40164;SDS011;25882;51.120;17.248;2023-01-06T12:16:00;10.07;;;4.57;;
40164;SDS011;25882;51.120;17.248;2023-01-06T12:18:29;8.60;;;4.65;;
40164;SDS011;25882;51.120;17.248;2023-01-06T12:20:59;13.75;;;5.72;;
40164;SDS011;25882;51.120;17.248;2023-01-06T12:23:26;7.97;;;4.20;;
40164;SDS011;25882;51.120;17.248;2023-01-06T12:25:55;8.80;;;4.20;;
40164;SDS011;25882;51.120;17.248;2023-01-06T12:28:23;9.60;;;5.68;;
40164;SDS011;25882;51.120;17.248;2023-01-06T12:30:54;7.85;;;4.50;;
40164;SDS011;25882;51.120;17.248;2023-01-06T12:33:24;8.75;;;4.70;;
40164;SDS011;25882;51.120;17.248;2023-01-06T12:35:53;8.77;;;4.95;;
40164;SDS011;25882;51.120;17.248;2023-01-06T12:38:26;9.25;;;4.90;;
40164;SDS011;25882;51.120;17.248;2023-01-06T12:41:02;13.27;;;5.70;;
40164;SDS011;25882;51.120;17.248;2023-01-06T12:43:32;19.42;;;8.07;;
40164;SDS011;25882;51.120;17.248;2023-01-06T12:46:00;15.05;;;7.47;;
40164;SDS011;25882;51.120;17.248;2023-01-06T12:48:33;12.40;;;6.05;;
40164;SDS011;25882;51.120;17.248;2023-01-06T12:51:03;12.57;;;5.95;;
40164;SDS011;25882;51.120;17.248;2023-01-06T12:53:34;12.07;;;6.63;;
40164;SDS011;25882;51.120;17.248;2023-01-06T12:56:09;14.40;;;5.93;;
40164;SDS011;25882;51.120;17.248;2023-01-06T12:58:49;13.40;;;6.57;;
40164;SDS011;25882;51.120;17.248;2023-01-06T13:01:22;14.00;;;6.57;;
40164;SDS011;25882;51.120;17.248;2023-01-06T13:04:14;14.77;;;6.00;;
40164;SDS011;25882;51.120;17.248;2023-01-06T13:06:59;13.30;;;6.47;;
40164;SDS011;25882;51.120;17.248;2023-01-06T13:09:40;16.85;;;7.28;;
40164;SDS011;25882;51.120;17.248;2023-01-06T13:15:03;15.90;;;6.22;;
40164;SDS011;25882;51.120;17.248;2023-01-06T13:17:33;14.57;;;6.65;;
40164;SDS011;25882;51.120;17.248;2023-01-06T13:20:03;14.70;;;8.18;;
40164;SDS011;25882;51.120;17.248;2023-01-06T13:22:36;13.85;;;6.95;;
40164;SDS011;25882;51.120;17.248;2023-01-06T13:25:17;13.18;;;6.53;;
40164;SDS011;25882;51.120;17.248;2023-01-06T13:27:57;13.02;;;6.38;;
40164;SDS011;25882;51.120;17.248;2023-01-06T13:30:39;14.73;;;7.03;;
40164;SDS011;25882;51.120;17.248;2023-01-06T13:33:34;17.00;;;7.45;;
40164;SDS011;25882;51.120;17.248;2023-01-06T13:36:23;15.70;;;7.82;;
40164;SDS011;25882;51.120;17.248;2023-01-06T13:38:56;17.30;;;8.88;;
40164;SDS011;25882;51.120;17.248;2023-01-06T13:41:27;17.05;;;8.70;;
40164;SDS011;25882;51.120;17.248;2023-01-06T13:43:55;19.15;;;8.25;;
40164;SDS011;25882;51.120;17.248;2023-01-06T13:46:23;22.30;;;11.25;;
40164;SDS011;25882;51.120;17.248;2023-01-06T13:48:51;30.17;;;17.20;;
40164;SDS011;25882;51.120;17.248;2023-01-06T13:51:21;25.30;;;10.35;;
40164;SDS011;25882;51.120;17.248;2023-01-06T13:53:48;18.63;;;8.80;;
40164;SDS011;25882;51.120;17.248;2023-01-06T13:56:21;19.10;;;9.05;;
40164;SDS011;25882;51.120;17.248;2023-01-06T13:58:50;15.43;;;8.68;;
40164;SDS011;25882;51.120;17.248;2023-01-06T14:01:29;21.75;;;9.90;;
40164;SDS011;25882;51.120;17.248;2023-01-06T14:04:42;21.35;;;11.15;;
40164;SDS011;25882;51.120;17.248;2023-01-06T14:07:06;16.10;;;9.15;;
40164;SDS011;25882;51.120;17.248;2023-01-06T14:09:35;18.33;;;9.60;;
40164;SDS011;25882;51.120;17.248;2023-01-06T14:12:07;15.73;;;9.33;;
40164;SDS011;25882;51.120;17.248;2023-01-06T14:17:03;20.52;;;8.90;;
40164;SDS011;25882;51.120;17.248;2023-01-06T14:19:30;19.88;;;10.10;;
40164;SDS011;25882;51.120;17.248;2023-01-06T14:22:12;16.67;;;9.68;;
40164;SDS011;25882;51.120;17.248;2023-01-06T14:24:39;15.48;;;9.18;;
40164;SDS011;25882;51.120;17.248;2023-01-06T14:27:09;18.55;;;8.60;;
40164;SDS011;25882;51.120;17.248;2023-01-06T14:35:25;18.85;;;8.02;;
40164;SDS011;25882;51.120;17.248;2023-01-06T14:37:57;22.00;;;8.35;;
40164;SDS011;25882;51.120;17.248;2023-01-06T14:40:26;19.15;;;9.50;;
40164;SDS011;25882;51.120;17.248;2023-01-06T14:42:54;16.88;;;9.43;;
40164;SDS011;25882;51.120;17.248;2023-01-06T14:45:24;20.20;;;9.93;;
40164;SDS011;25882;51.120;17.248;2023-01-06T14:47:53;21.85;;;9.52;;
40164;SDS011;25882;51.120;17.248;2023-01-06T14:50:22;19.75;;;9.50;;
40164;SDS011;25882;51.120;17.248;2023-01-06T14:52:52;19.77;;;10.40;;
40164;SDS011;25882;51.120;17.248;2023-01-06T14:55:20;15.88;;;8.35;;
40164;SDS011;25882;51.120;17.248;2023-01-06T14:57:48;24.90;;;10.60;;
40164;SDS011;25882;51.120;17.248;2023-01-06T15:00:15;61.67;;;27.13;;
40164;SDS011;25882;51.120;17.248;2023-01-06T15:02:50;38.25;;;17.38;;
40164;SDS011;25882;51.120;17.248;2023-01-06T15:05:19;21.35;;;10.07;;
40164;SDS011;25882;51.120;17.248;2023-01-06T15:07:57;36.97;;;15.75;;
40164;SDS011;25882;51.120;17.248;2023-01-06T15:10:24;44.20;;;17.42;;